1704280500Z   WORAPOJN

TAF VTCC 280500Z 2806/2912 17007KT 9000 SCT040

     TEMPO 2808/2810 16025KT 4000 TSRA FEW020CB=

TAF VTCT 280500Z 2806/2912 19007KT 9000 SCT040

     TEMPO 2809/2811 21025KT 3500 TSRA FEW020CB=

TAF VTCH 280500Z 2806/2906 24005KT 9000 SCT040

     TEMPO 2808/2810 25025KT 3500 TSRA FEW020CB=

TAF VTCN 280500Z 2806/2906 16007KT 9000 SCT040

     TEMPO 2809/2811 20025KT 3500 TSRA FEW020CB=

TAF VTCL 280500Z 2806/2906 16007KT 9000 SCT040

     TEMPO 2808/2810 20025KT 4000 TSRA FEW020CB=

TAF VTCP 280500Z 2806/2906 16007KT 9000 SCT040

     TEMPO 2808/2810 20025KT 4000 TSRA FEW020CB=

TAF VTPT 280500Z 2806/2906 14007KT 9000 SCT040

     TEMPO 2808/2810 16025KT 4000 TSRA FEW020CB=

TAF VTPM 280500Z 2806/2906 16007KT 9000 SCT040

     TEMPO 2808/2810 14025KT 4000 TSRA FEW020CB=

TAF VTPP 280500Z 2806/2906 14007KT 9000 SCT040

     TEMPO 2808/2810 17025KT 4000 TSRA FEW020CB=

TAF VTPB 280500Z 2806/2906 12007KT 9000 SCT040

     TEMPO 2808/2810 14025KT 4000 TSRA FEW020CB=

TAF VTPO 280500Z 2806/2906 14007KT 9000 SCT040

     TEMPO 2808/2810 16025KT 4000 TSRA FEW020CB=

 

1704281100Z   WORAPOJN

TAF VTCC 281100Z 2812/2918 23007KT 9000 FEW040

     TEMPO 2908/2910 21020KT 4000 TSRA FEW020CB=

TAF VTCT 281100Z 2812/2918 20007KT 9000 FEW040

     TEMPO 2909/2911 22020KT 4000 TSRA FEW020CB=

TAF VTCH 281100Z 2812/2918 25005KT 9000 FEW040

     TEMPO 2908/2910 24020KT 3500 TSRA FEW020CB=

TAF VTCN 281100Z 2812/2918 20007KT 9000 FEW040

     TEMPO 2908/2910 24020KT 3500 TSRA FEW020CB=

TAF VTCL 281100Z 2812/2918 23007KT 9000 FEW040

     TEMPO 2909/2911 22020KT 4000 TSRA FEW020CB=

TAF VTCP 281100Z 2812/2918 19007KT 9000 FEW040

     TEMPO 2908/2910 24020KT 3500 TSRA FEW020CB=

TAF VTPT 281100Z 2812/2918 24007KT 9000 FEW040

     TEMPO 2908/2910 24020KT 3500 TSRA FEW020CB=

TAF VTPM 281100Z 2812/2918 25008KT 9000 FEW040

     TEMPO 2908/2910 24020KT 3500 TSRA FEW020CB=

TAF VTPP 281100Z 2812/2918 20007KT 9000 FEW040

     TEMPO 2909/2911 22020KT 4000 TSRA FEW020CB=

TAF VTPB 281100Z 2812/2918 19007KT 9000 FEW040

     TEMPO 2908/2910 21020KT 4000 TSRA FEW020CB=

TAF VTPO 281100Z 2812/2918 23007KT 9000 FEW040

     TEMPO 2908/2910 24020KT 3500 TSRA FEW020CB=